🇳🇱 VeloStatistics

👤 Michael Reihs

NationaliteitDEN
Geboortedatum1979-04-25
Overlijdensdatum -
Lengte / Gewicht?? cm / ?? kg
Profzeges1
Profzeges 20260
Wedstrijddagen326

🚴 Ploegenhistorie

PloegCodeJaar
Team Fakta FAK 2003
Phonak PHO 2002
Phonak PHO 2001

📊 Prestatie Matrix

Jaar
GdI
TdF
VaE
MSR
RvV
PR
LBL
LOM
WK
PN
TA
VPV
VaC
TdR
CdD
TdS
GW
AGR
FW
PT
2016 - - - - - - - - - - - - - - - - - - 129 -
2015 - - - - - - DNF - - - - - - - - - - - - -

🏆 Resultaten (180)

Datum Pos Wedstrijd UCI Ploeg
2015-01-29 100 2015 | Trofeo Porreres, SPA (29.1) 1.1 -
2014-08-10 58 2014 | Danmark Rundt, DEN (10.8) 2.HC -
2014-05-16 4 2014 | Rhone-Alpes Isère Tour, FRA | Rit 2 (16.5) 2.2 -
2014-05-03 20 2014 | Himmerland Rundt, DEN (3.5) 1.2 -
2014-05-02 17 2014 | Rent Liv Lobet Skive, DEN (2.5) 1.2 -
2014-04-05 57 2014 | Hel van het Mergelland, NED (5.4) 1.1 -
2014-02-21 88 2014 | Trofeo Laigueglia, ITA (21.2) 1.1 -
2013-09-01 25 2013 | Schaal Sels (Merksem), BEL (1.9) 1.1 -
2013-08-18 60 2013 | Tour des Fjords, NOR (18.8) 2.1 -
2013-08-17 18 2013 | Tour des Fjords, NOR | Rit 2 (17.8) 2.1 -
2013-08-04 90 2013 | Danmark Rundt, DEN (4.8) 2.HC -
2013-06-09 107 2013 | Jurmala G.P., LAT (9.6) 1.1 -
2013-06-08 129 2013 | Riga G.P., LAT (8.6) 1.1 -
2013-05-19 46 2013 | Tour of Norway, NOR (19.5) 2.1 -
2013-05-15 14 2013 | Tour of Norway, NOR | Rit 1 (15.5) 2.1 -
2013-04-20 9 2013 | G.P. Herning, DEN (20.4) 1.2 -
2013-04-05 6 2013 | Circuit des Ardennes, FRA | Rit 1 (5.4) 2.2 -
2013-02-24 50 2013 | Les Boucles du Sud Ardèche, FRA (24.2) 1.1 -
2012-09-19 74 2012 | Omloop van het Houtland (Lichtervelde), BEL (19.9) 1.1 -
2012-08-26 88 2012 | Danmark Rundt, DEN (26.8) 2.HC -
2012-07-08 79 2012 | Course de Solidarnosc et des Champions Olympiques, POL (8.7) 2.1 -
2012-05-20 77 2012 | Tour of Norway, NOR (20.5) 2.1 -
2012-05-17 11 2012 | Tour of Norway, NOR | Rit 2 (17.5) 2.1 -
2012-05-06 25 2012 | Szlakiem Grodow Piastowskich, POL (6.5) 2.1 -
2012-05-05 15 2012 | Szlakiem Grodow Piastowskich, POL | Rit 3 (5.5) 2.1 -
2012-04-29 5 2012 | Himmerland Rundt, DEN (29.4) 1.2 -
2012-04-13 16 2012 | Vuelta Castilla y Leon, SPA | Rit 1 (13.4) 2.1 -
2012-03-18 10 2012 | Vuelta Mexico Telmex, MEX | Rit 1 (18.3) 2.2 -
2012-03-14 15 2012 | Nokere Koerse, BEL (14.3) 1.1 -
2012-03-10 60 2012 | Ronde van Drenthe, NED (10.3) 1.1 -
2012-03-09 51 2012 | Dwars door Drenthe, NED (9.3) 1.1 -
2011-08-07 84 2011 | Danmark Rundt, DEN (7.8) 2.HC -
2011-07-24 106 2011 | Brixia Tour, ITA (24.7) 2.1 -
2011-06-26 3 2011 | N.K. Denemarken, DEN (26.6) NC -
2011-05-28 6 2011 | G.P. Tartu, EST (28.5) 1.1 -
2011-04-24 1 2011 | Himmerland Rundt, DEN (24.4) 1.2 -
2011-04-23 2 2011 | G.P. Herning, DEN (23.4) 1.1 -
2010-08-08 49 2010 | Danmark Rundt, DEN (8.8) 2.HC -
2010-07-25 9 2010 | G.P. Perenchies, FRA (25.7) 1.2 -
2010-06-13 11 2010 | Tour de l'Oise, FRA (13.6) 2.2 -
2010-06-10 7 2010 | Tour de l'Oise, FRA | Rit 1 (10.6) 2.2 -
2010-05-30 4 2010 | Tour des Fjords, NOR (30.5) 1.2 -
2010-05-01 5 2010 | G.P. Herning, DEN (1.5) 1.1 -
2010-04-10 15 2010 | Ronde van Drenthe, NED (10.4) 1.1 -
2010-04-05 21 2010 | Rund um Köln, DUI (5.4) 1.1 -
2010-04-03 25 2010 | Hel van het Mergelland, NED (3.4) 1.1 -
2010-03-21 7 2010 | La Roue Tourangelle, FRA (21.3) 1.2 -
2010-03-17 25 2010 | Nokere Koerse, BEL (17.3) 1.1 -
2010-01-24 32 2010 | La Tropicale Amissa Bongo (Tabo), GAB (24.1) 2.1 -
2010-01-24 1 2010 | La Tropicale Amissa Bongo (Tabo), GAB | Rit 6 (24.1) 2.1 -